Time;durP1;ratioP1;P1;durP2;ratioP2;P2;SDS_P1;SDS_P2;PMS_P1;PMS_P2;Temp;Humidity;BMP_temperature;BMP_pressure;BME280_temperature;BME280_humidity;BME280_pressure;Samples;Min_cycle;Max_cycle;Signal;HPM_P1;HPM_P2
2024/01/06 00:00:37;;;;;;;49.20;29.17;;;0.60;87.50;;;;;;5024737;28;20052;-73
2024/01/06 00:03:03;;;;;;;51.50;30.33;;;0.60;87.50;;;;;;5027204;28;20048;-75
2024/01/06 00:05:29;;;;;;;53.87;29.07;;;0.60;87.50;;;;;;5026261;28;20049;-74
2024/01/06 00:07:54;;;;;;;54.60;30.13;;;0.60;87.60;;;;;;5008193;28;20124;-73
2024/01/06 00:10:20;;;;;;;50.73;28.73;;;0.60;87.50;;;;;;5044802;28;20045;-72
2024/01/06 00:12:46;;;;;;;50.87;28.10;;;0.60;87.50;;;;;;5044654;28;20053;-75
2024/01/06 00:15:11;;;;;;;50.47;28.37;;;0.60;87.60;;;;;;5042967;28;20415;-72
2024/01/06 00:17:37;;;;;;;49.60;27.73;;;0.60;87.50;;;;;;5042969;28;20106;-73
2024/01/06 00:20:04;;;;;;;49.30;27.13;;;0.50;87.60;;;;;;5044437;28;20514;-74
2024/01/06 00:22:30;;;;;;;53.67;29.13;;;0.50;87.50;;;;;;5044751;28;20056;-74
2024/01/06 00:24:55;;;;;;;44.53;25.80;;;0.50;87.50;;;;;;5038675;28;20048;-75
2024/01/06 00:27:21;;;;;;;51.43;28.13;;;0.50;87.50;;;;;;5031934;28;20724;-73
2024/01/06 00:29:47;;;;;;;51.13;27.03;;;0.50;87.50;;;;;;5041051;28;20418;-73
2024/01/06 00:32:13;;;;;;;50.97;27.40;;;0.40;87.50;;;;;;5061383;28;20546;-72
2024/01/06 00:34:38;;;;;;;48.27;27.00;;;0.40;87.60;;;;;;5046969;28;20040;-74
2024/01/06 00:37:04;;;;;;;46.93;25.53;;;0.50;87.50;;;;;;5027610;28;20052;-73
2024/01/06 00:39:30;;;;;;;50.73;26.47;;;0.40;87.50;;;;;;5045521;28;20532;-73
2024/01/06 00:41:55;;;;;;;50.90;27.77;;;0.40;87.50;;;;;;5045189;28;20132;-73
2024/01/06 00:44:21;;;;;;;51.73;27.67;;;0.40;87.50;;;;;;5060786;28;20047;-72
2024/01/06 00:46:47;;;;;;;55.20;28.10;;;0.40;87.50;;;;;;5044973;28;20136;-73
2024/01/06 00:49:13;;;;;;;54.40;29.23;;;0.40;87.50;;;;;;5025783;28;20100;-73
2024/01/06 00:51:38;;;;;;;50.13;26.30;;;0.40;87.50;;;;;;5038355;28;20431;-74
2024/01/06 00:54:04;;;;;;;50.27;25.10;;;0.40;87.50;;;;;;5042929;28;20147;-74
2024/01/06 00:56:30;;;;;;;51.17;27.17;;;0.40;87.50;;;;;;5038433;28;20057;-73
2024/01/06 00:58:55;;;;;;;50.03;27.73;;;0.30;87.50;;;;;;5025439;28;20111;-73
2024/01/06 01:01:21;;;;;;;47.13;27.27;;;0.30;87.50;;;;;;5030059;28;20041;-73
2024/01/06 01:03:47;;;;;;;52.60;28.17;;;0.30;87.50;;;;;;5044350;28;20041;-74
2024/01/06 01:06:13;;;;;;;51.03;27.23;;;0.30;87.50;;;;;;5044559;28;20128;-75
2024/01/06 01:08:38;;;;;;;44.33;25.00;;;0.30;87.50;;;;;;5045314;28;20061;-73
2024/01/06 01:11:04;;;;;;;46.70;24.47;;;0.30;87.50;;;;;;5027335;28;20051;-73
2024/01/06 01:13:30;;;;;;;40.83;23.50;;;0.30;87.50;;;;;;5045004;28;20099;-72
2024/01/06 01:15:56;;;;;;;44.07;24.23;;;0.30;87.50;;;;;;5011074;28;20037;-73
2024/01/06 01:18:21;;;;;;;43.20;22.70;;;0.20;87.40;;;;;;5037475;28;20037;-72
2024/01/06 01:20:47;;;;;;;38.60;24.50;;;0.20;87.30;;;;;;5026498;28;20033;-73
2024/01/06 01:23:13;;;;;;;36.97;22.67;;;0.20;87.30;;;;;;5026453;28;20045;-73
2024/01/06 01:25:39;;;;;;;38.03;23.67;;;0.20;87.30;;;;;;5024524;28;20492;-74
2024/01/06 01:28:04;;;;;;;40.93;23.30;;;0.10;87.30;;;;;;5024423;28;20063;-73
2024/01/06 01:30:32;;;;;;;44.53;23.27;;;0.10;87.30;;;;;;5046305;28;20053;-73
2024/01/06 01:32:58;;;;;;;41.93;22.90;;;0.10;87.30;;;;;;5017482;28;20052;-73
2024/01/06 01:35:24;;;;;;;40.93;23.10;;;0.20;87.40;;;;;;5062446;28;20457;-73
2024/01/06 01:37:49;;;;;;;40.37;24.13;;;0.10;87.40;;;;;;5044990;28;20045;-73
2024/01/06 01:40:15;;;;;;;36.20;21.97;;;0.10;87.30;;;;;;5022289;28;20069;-74
2024/01/06 01:42:43;;;;;;;37.67;23.73;;;0.00;87.30;;;;;;5023210;28;20080;-72
2024/01/06 01:45:08;;;;;;;35.80;21.83;;;0.00;87.30;;;;;;5024917;28;20037;-73
2024/01/06 01:47:34;;;;;;;36.87;22.10;;;0.00;87.20;;;;;;5028784;28;20055;-73
2024/01/06 01:50:01;;;;;;;33.43;22.20;;;0.00;87.20;;;;;;5041176;28;20079;-72
2024/01/06 01:52:27;;;;;;;36.13;22.03;;;0.00;87.20;;;;;;5027435;28;20412;-73
2024/01/06 01:54:53;;;;;;;35.10;21.40;;;0.00;87.20;;;;;;5010204;28;20341;-73
2024/01/06 01:57:23;;;;;;;35.23;22.17;;;0.00;87.20;;;;;;5004528;28;20478;-75
2024/01/06 01:59:49;;;;;;;36.17;20.97;;;0.00;87.20;;;;;;5032573;28;20056;-73
2024/01/06 02:02:16;;;;;;;35.53;20.70;;;0.00;87.20;;;;;;5028091;28;20054;-73
2024/01/06 02:04:44;;;;;;;30.20;20.47;;;0.00;87.10;;;;;;5010385;28;20045;-73
2024/01/06 02:07:10;;;;;;;34.03;19.70;;;0.00;87.10;;;;;;5041961;28;20477;-72
2024/01/06 02:09:36;;;;;;;29.97;19.63;;;0.00;87.10;;;;;;5048417;28;20055;-74
2024/01/06 02:12:02;;;;;;;31.10;19.70;;;0.00;87.10;;;;;;5041739;28;20055;-73
2024/01/06 02:14:28;;;;;;;30.97;18.77;;;0.00;87.20;;;;;;5027726;28;20543;-72
2024/01/06 02:16:54;;;;;;;32.23;19.40;;;0.00;87.10;;;;;;5027919;28;20049;-73
2024/01/06 02:19:20;;;;;;;33.10;18.73;;;0.00;87.10;;;;;;5014035;28;20040;-73
2024/01/06 02:21:53;;;;;;;27.40;18.23;;;0.00;87.00;;;;;;5037915;28;20051;-73
2024/01/06 02:24:19;;;;;;;31.00;17.77;;;0.00;87.10;;;;;;5021870;28;20509;-72
2024/01/06 02:26:44;;;;;;;28.30;17.53;;;0.00;87.00;;;;;;5030371;28;20055;-72
2024/01/06 02:29:10;;;;;;;31.57;19.80;;;0.00;87.10;;;;;;5017110;28;20446;-72
2024/01/06 02:31:36;;;;;;;31.37;19.40;;;0.00;87.00;;;;;;5049323;28;20073;-72
2024/01/06 02:34:01;;;;;;;30.40;19.33;;;0.00;87.00;;;;;;5050736;28;20383;-74
2024/01/06 02:36:27;;;;;;;33.27;21.00;;;0.00;87.00;;;;;;5038745;28;20041;-74
2024/01/06 02:38:53;;;;;;;32.17;21.40;;;0.00;87.00;;;;;;5014253;28;20396;-72
2024/01/06 02:41:18;;;;;;;37.90;22.87;;;0.00;87.00;;;;;;5030889;28;20045;-72
2024/01/06 02:43:44;;;;;;;35.03;22.40;;;0.00;87.00;;;;;;5043634;28;20053;-73
2024/01/06 02:46:10;;;;;;;38.03;24.33;;;0.00;87.00;;;;;;5034057;28;20053;-72
2024/01/06 02:48:35;;;;;;;41.60;24.03;;;0.00;86.90;;;;;;5035743;28;20049;-72
2024/01/06 02:51:01;;;;;;;38.87;24.20;;;0.00;86.90;;;;;;5029939;28;20316;-73
2024/01/06 02:53:27;;;;;;;37.77;24.07;;;0.00;86.90;;;;;;5041649;28;20061;-73
2024/01/06 02:55:52;;;;;;;42.23;25.57;;;0.00;86.90;;;;;;5046743;28;20047;-72
2024/01/06 02:58:18;;;;;;;40.97;24.73;;;0.00;86.90;;;;;;5032969;28;20054;-72
2024/01/06 03:00:44;;;;;;;44.17;25.67;;;0.00;86.90;;;;;;5041210;28;20049;-75
2024/01/06 03:03:09;;;;;;;43.53;24.07;;;0.00;86.90;;;;;;5045875;28;20053;-74
2024/01/06 03:05:36;;;;;;;42.27;25.03;;;0.00;86.90;;;;;;5046618;28;20558;-71
2024/01/06 03:08:03;;;;;;;39.97;24.00;;;0.00;86.90;;;;;;4994011;28;20046;-73
2024/01/06 03:10:29;;;;;;;40.13;24.23;;;0.00;86.90;;;;;;5042122;28;20056;-72
2024/01/06 03:12:54;;;;;;;38.50;21.93;;;0.00;86.90;;;;;;5029459;28;20051;-72
2024/01/06 03:15:20;;;;;;;38.53;23.00;;;0.00;86.90;;;;;;5028278;28;20370;-73
2024/01/06 03:17:46;;;;;;;33.90;21.00;;;0.00;86.80;;;;;;5046542;28;20044;-72
2024/01/06 03:20:11;;;;;;;37.30;21.63;;;0.00;86.90;;;;;;5027213;28;20057;-73
2024/01/06 03:22:38;;;;;;;35.83;22.43;;;0.00;86.80;;;;;;5027445;28;20077;-73
2024/01/06 03:25:04;;;;;;;36.03;22.43;;;0.00;86.80;;;;;;5037807;28;20052;-72
2024/01/06 03:27:30;;;;;;;35.97;22.70;;;0.00;86.80;;;;;;5022333;28;20041;-71
2024/01/06 03:29:56;;;;;;;35.77;21.30;;;0.00;86.80;;;;;;5043819;28;20105;-73
2024/01/06 03:32:22;;;;;;;31.90;20.87;;;0.00;86.80;;;;;;5048931;28;20040;-72
2024/01/06 03:34:47;;;;;;;37.73;21.60;;;0.00;86.80;;;;;;5052854;28;20056;-72
2024/01/06 03:37:13;;;;;;;36.27;21.50;;;0.00;86.70;;;;;;5033548;28;20049;-72
2024/01/06 03:39:39;;;;;;;32.27;20.87;;;0.00;86.70;;;;;;5043008;28;20059;-72
2024/01/06 03:42:05;;;;;;;32.73;20.27;;;0.00;86.70;;;;;;5038122;28;20049;-72
2024/01/06 03:44:33;;;;;;;34.97;20.17;;;0.00;86.60;;;;;;5044331;28;20210;-72
2024/01/06 03:46:59;;;;;;;31.73;21.27;;;0.00;86.70;;;;;;5030949;28;20462;-72
2024/01/06 03:49:25;;;;;;;35.30;20.33;;;0.00;86.70;;;;;;5046281;28;20062;-71
2024/01/06 03:51:51;;;;;;;35.20;21.37;;;0.00;86.60;;;;;;5042567;28;20056;-73
2024/01/06 03:54:17;;;;;;;31.30;20.57;;;0.00;86.70;;;;;;5018325;28;20049;-72
2024/01/06 03:56:43;;;;;;;33.10;20.73;;;0.00;86.60;;;;;;5026216;28;20055;-73
2024/01/06 03:59:08;;;;;;;34.20;21.97;;;0.00;86.60;;;;;;5037510;28;20393;-73
2024/01/06 04:01:35;;;;;;;36.87;20.87;;;0.00;86.60;;;;;;5034270;28;20045;-73
2024/01/06 04:04:05;;;;;;;35.90;20.93;;;0.00;86.60;;;;;;5030652;28;20037;-73
2024/01/06 04:06:33;;;;;;;32.63;21.20;;;0.00;86.60;;;;;;5044018;28;20072;-73
2024/01/06 04:09:00;;;;;;;33.00;20.93;;;0.00;86.60;;;;;;5028873;28;20057;-73
2024/01/06 04:11:26;;;;;;;32.10;19.87;;;0.00;86.60;;;;;;5044935;28;20067;-71
2024/01/06 04:13:51;;;;;;;34.90;19.87;;;0.00;86.60;;;;;;5028193;28;20425;-72
2024/01/06 04:16:17;;;;;;;35.10;20.93;;;0.00;86.60;;;;;;5039275;28;20042;-73
2024/01/06 04:18:43;;;;;;;34.90;20.27;;;0.10;86.70;;;;;;5040075;28;20045;-73
2024/01/06 04:21:08;;;;;;;34.37;20.07;;;0.00;86.60;;;;;;5046329;28;20071;-72
2024/01/06 04:23:34;;;;;;;32.43;20.17;;;0.00;86.70;;;;;;5029931;28;20365;-72
2024/01/06 04:26:01;;;;;;;33.67;20.87;;;0.00;86.60;;;;;;5036727;28;20110;-72
2024/01/06 04:28:27;;;;;;;32.57;20.07;;;0.00;86.60;;;;;;5021521;28;20045;-72
2024/01/06 04:30:53;;;;;;;31.00;19.40;;;0.10;86.60;;;;;;5039246;28;20049;-72
2024/01/06 04:33:19;;;;;;;33.27;20.43;;;0.10;86.60;;;;;;5046593;28;20061;-72
2024/01/06 04:35:45;;;;;;;33.47;19.00;;;0.00;86.50;;;;;;5010415;28;20045;-72
2024/01/06 04:38:10;;;;;;;32.50;20.00;;;0.10;86.50;;;;;;5038253;28;20435;-72
2024/01/06 04:40:36;;;;;;;32.20;19.37;;;0.10;86.60;;;;;;5044431;28;20061;-72
2024/01/06 04:43:03;;;;;;;27.83;19.23;;;0.00;86.50;;;;;;5052488;28;20056;-74
2024/01/06 04:45:29;;;;;;;28.17;18.13;;;0.00;86.60;;;;;;5026850;28;20503;-72
2024/01/06 04:47:55;;;;;;;27.80;18.03;;;0.00;86.50;;;;;;5035877;28;20157;-72
2024/01/06 04:50:20;;;;;;;29.80;18.03;;;0.00;86.50;;;;;;5031588;28;20124;-72
2024/01/06 04:52:46;;;;;;;28.20;18.80;;;0.00;86.50;;;;;;5025344;28;20072;-71
2024/01/06 04:55:12;;;;;;;26.97;17.67;;;0.00;86.50;;;;;;5040796;28;20053;-74
2024/01/06 04:57:37;;;;;;;26.47;17.57;;;0.10;86.50;;;;;;5026352;28;20064;-75
2024/01/06 05:00:04;;;;;;;30.83;18.53;;;0.10;86.50;;;;;;5034929;28;20132;-72
2024/01/06 05:02:30;;;;;;;25.83;17.43;;;0.10;86.50;;;;;;5043608;28;20122;-74
2024/01/06 05:04:55;;;;;;;27.17;17.90;;;0.10;86.50;;;;;;5047909;28;20076;-73
2024/01/06 05:07:21;;;;;;;26.60;17.23;;;0.10;86.40;;;;;;5057225;28;20064;-72
2024/01/06 05:09:47;;;;;;;27.77;18.53;;;0.10;86.40;;;;;;5032747;28;20056;-72
2024/01/06 05:12:13;;;;;;;26.90;17.23;;;0.10;86.40;;;;;;5061169;28;20048;-73
2024/01/06 05:14:38;;;;;;;30.27;18.37;;;0.10;86.40;;;;;;5030256;28;20056;-72
2024/01/06 05:17:04;;;;;;;28.43;17.03;;;0.10;86.40;;;;;;5017087;28;20037;-72
2024/01/06 05:19:31;;;;;;;26.80;18.30;;;0.10;86.40;;;;;;5022007;28;20061;-73
2024/01/06 05:21:57;;;;;;;26.67;18.00;;;0.20;86.40;;;;;;5031084;28;20041;-74
2024/01/06 05:24:23;;;;;;;26.60;18.10;;;0.10;86.40;;;;;;5034425;28;20057;-73
2024/01/06 05:26:49;;;;;;;25.33;17.43;;;0.20;86.40;;;;;;5043583;28;20045;-71
2024/01/06 05:29:15;;;;;;;28.40;17.67;;;0.20;86.40;;;;;;5051089;28;20523;-72
2024/01/06 05:31:41;;;;;;;30.67;17.80;;;0.20;86.30;;;;;;5060953;28;20053;-73
2024/01/06 05:34:06;;;;;;;31.03;15.73;;;0.20;86.30;;;;;;5062982;28;20499;-72
2024/01/06 05:36:32;;;;;;;27.10;16.83;;;0.20;86.30;;;;;;5028566;28;20057;-73
2024/01/06 05:39:00;;;;;;;28.73;17.97;;;0.20;86.30;;;;;;5032151;28;20059;-74
2024/01/06 05:41:26;;;;;;;29.63;18.53;;;0.20;86.20;;;;;;5022158;28;20045;-72
2024/01/06 05:43:51;;;;;;;29.23;18.10;;;0.20;86.20;;;;;;5050545;28;20696;-72
2024/01/06 05:46:25;;;;;;;25.93;17.20;;;0.20;86.20;;;;;;5028688;28;20037;-76
2024/01/06 05:48:51;;;;;;;29.27;18.17;;;0.20;86.20;;;;;;5030863;28;20484;-72
2024/01/06 05:51:16;;;;;;;29.47;18.43;;;0.20;86.20;;;;;;5033642;28;20042;-73
2024/01/06 05:53:42;;;;;;;30.93;18.37;;;0.20;86.20;;;;;;5027263;28;20465;-73
2024/01/06 05:56:09;;;;;;;32.23;19.07;;;0.20;86.10;;;;;;5044694;28;20503;-71
2024/01/06 05:58:34;;;;;;;32.90;19.87;;;0.20;86.20;;;;;;5045391;28;20128;-73
2024/01/06 06:01:00;;;;;;;31.77;18.60;;;0.20;86.10;;;;;;5029784;28;20160;-73
2024/01/06 06:03:26;;;;;;;35.23;20.93;;;0.20;86.20;;;;;;5047303;28;21240;-75
2024/01/06 06:05:52;;;;;;;31.77;19.93;;;0.30;86.20;;;;;;5041590;28;20496;-71
2024/01/06 06:08:18;;;;;;;30.50;18.73;;;0.30;86.30;;;;;;5037828;28;20099;-72
2024/01/06 06:11:05;;;;;;;35.00;19.50;;;0.30;86.20;;;;;;5047620;28;20393;-72
2024/01/06 06:13:31;;;;;;;30.90;19.53;;;0.20;86.30;;;;;;5045401;28;20056;-73
2024/01/06 06:15:57;;;;;;;34.40;20.53;;;0.20;86.20;;;;;;5009364;28;20042;-72
2024/01/06 06:18:23;;;;;;;32.73;19.87;;;0.30;86.30;;;;;;5033633;28;20528;-73
2024/01/06 06:20:49;;;;;;;34.83;20.60;;;0.30;86.30;;;;;;5022537;28;20056;-73
2024/01/06 06:23:14;;;;;;;31.90;19.60;;;0.30;86.30;;;;;;5040041;28;20490;-73
2024/01/06 06:25:40;;;;;;;33.77;19.77;;;0.30;86.40;;;;;;5038285;28;20068;-72
2024/01/06 06:28:06;;;;;;;29.60;19.13;;;0.30;86.30;;;;;;5047964;28;20051;-72
2024/01/06 06:30:32;;;;;;;33.83;18.53;;;0.30;86.40;;;;;;5051705;28;20139;-72
2024/01/06 06:32:58;;;;;;;33.57;17.93;;;0.30;86.50;;;;;;5030390;28;20072;-74
2024/01/06 06:35:25;;;;;;;28.13;19.03;;;0.30;86.50;;;;;;5057167;28;20515;-72
2024/01/06 06:37:51;;;;;;;29.13;18.30;;;0.30;86.40;;;;;;5044690;28;20152;-72
2024/01/06 06:40:17;;;;;;;29.73;18.30;;;0.40;86.50;;;;;;5040213;28;20136;-73
2024/01/06 06:42:43;;;;;;;30.03;19.50;;;0.40;86.40;;;;;;5047668;28;20186;-72
2024/01/06 06:45:11;;;;;;;28.43;18.40;;;0.40;86.40;;;;;;5045505;28;20053;-73
2024/01/06 06:47:37;;;;;;;31.23;19.13;;;0.40;86.40;;;;;;5044952;28;20098;-72
2024/01/06 06:50:03;;;;;;;33.03;19.53;;;0.40;86.40;;;;;;5045241;28;20657;-72
2024/01/06 06:52:28;;;;;;;30.37;19.07;;;0.40;86.30;;;;;;5046231;28;20057;-72
2024/01/06 06:54:54;;;;;;;29.93;18.50;;;0.40;86.30;;;;;;5047636;28;20044;-72
2024/01/06 06:57:20;;;;;;;33.77;18.77;;;0.40;86.40;;;;;;5013164;28;20049;-73
2024/01/06 06:59:46;;;;;;;27.50;18.27;;;0.40;86.30;;;;;;5034551;28;20048;-72
2024/01/06 07:02:11;;;;;;;28.90;19.00;;;0.40;86.30;;;;;;5039479;28;20045;-72
2024/01/06 07:04:37;;;;;;;29.90;19.60;;;0.40;86.40;;;;;;5038685;28;20056;-72
2024/01/06 07:07:03;;;;;;;29.20;19.97;;;0.40;86.30;;;;;;5027395;28;20041;-72
2024/01/06 07:09:28;;;;;;;29.57;19.70;;;0.50;86.30;;;;;;5025563;28;20570;-74
2024/01/06 07:11:54;;;;;;;35.07;20.67;;;0.50;86.30;;;;;;5046557;28;20044;-72
2024/01/06 07:14:20;;;;;;;34.83;19.80;;;0.40;86.40;;;;;;5040290;28;20045;-73
2024/01/06 07:16:45;;;;;;;27.50;18.63;;;0.50;86.40;;;;;;5027368;28;20541;-74
2024/01/06 07:19:11;;;;;;;32.80;20.07;;;0.50;86.40;;;;;;5047805;28;20435;-72
2024/01/06 07:21:37;;;;;;;32.53;20.37;;;0.50;86.40;;;;;;5032891;28;20049;-74
2024/01/06 07:24:03;;;;;;;34.97;20.70;;;0.50;86.40;;;;;;5022517;28;20037;-72
2024/01/06 07:26:29;;;;;;;34.43;21.00;;;0.50;86.50;;;;;;5045986;28;20207;-72
2024/01/06 07:28:54;;;;;;;33.73;20.83;;;0.50;86.40;;;;;;5045671;28;20163;-72
2024/01/06 07:31:20;;;;;;;36.23;21.50;;;0.50;86.50;;;;;;5066877;28;20053;-72
2024/01/06 07:33:46;;;;;;;33.10;20.60;;;0.50;86.40;;;;;;5062561;28;20063;-73
2024/01/06 07:36:12;;;;;;;34.57;20.30;;;0.50;86.40;;;;;;5054353;28;20496;-72
2024/01/06 07:38:37;;;;;;;30.80;20.47;;;0.50;86.60;;;;;;5028243;28;20188;-72
2024/01/06 07:41:04;;;;;;;36.23;22.13;;;0.50;86.50;;;;;;5024543;28;20049;-72
2024/01/06 07:43:30;;;;;;;32.83;21.57;;;0.50;86.50;;;;;;5059523;28;20044;-72
2024/01/06 07:45:56;;;;;;;33.50;22.17;;;0.50;86.60;;;;;;5039585;28;20173;-75
2024/01/06 07:48:22;;;;;;;38.93;23.70;;;0.50;86.50;;;;;;5036545;28;20041;-73
2024/01/06 07:50:47;;;;;;;39.70;23.80;;;0.50;86.50;;;;;;5037024;28;20049;-72
2024/01/06 07:53:16;;;;;;;40.47;24.43;;;0.50;86.50;;;;;;5031808;28;20046;-72
2024/01/06 07:55:42;;;;;;;36.13;23.67;;;0.50;86.60;;;;;;5035197;28;20049;-72
2024/01/06 07:58:08;;;;;;;35.53;22.90;;;0.60;86.60;;;;;;5037511;28;20059;-75
2024/01/06 08:00:34;;;;;;;37.23;23.20;;;0.50;86.50;;;;;;5032941;28;20052;-75
2024/01/06 08:03:00;;;;;;;36.10;22.20;;;0.60;86.50;;;;;;5035516;28;20045;-73
2024/01/06 08:05:25;;;;;;;37.73;23.70;;;0.60;86.60;;;;;;5035039;28;20550;-73
2024/01/06 08:07:52;;;;;;;32.63;22.13;;;0.60;86.60;;;;;;5037368;28;20310;-73
2024/01/06 08:10:17;;;;;;;34.63;22.97;;;0.60;86.50;;;;;;5024234;28;20073;-73
2024/01/06 08:12:43;;;;;;;34.37;23.67;;;0.60;86.50;;;;;;5043952;28;20568;-72
2024/01/06 08:15:09;;;;;;;36.50;23.90;;;0.60;86.50;;;;;;5049506;28;20251;-73
2024/01/06 08:17:36;;;;;;;40.87;23.30;;;0.60;86.40;;;;;;5046620;28;20064;-73
2024/01/06 08:20:03;;;;;;;33.63;23.80;;;0.60;86.50;;;;;;5017932;28;20060;-72
2024/01/06 08:22:29;;;;;;;39.13;25.00;;;0.60;86.50;;;;;;5020980;28;20113;-73
2024/01/06 08:24:54;;;;;;;35.33;23.93;;;0.60;86.40;;;;;;5019536;28;20040;-73
2024/01/06 08:27:21;;;;;;;37.93;23.33;;;0.60;86.40;;;;;;5047254;28;20131;-72
2024/01/06 08:29:47;;;;;;;33.83;24.13;;;0.60;86.40;;;;;;5060276;28;20080;-72
2024/01/06 08:32:14;;;;;;;40.77;25.50;;;0.60;86.40;;;;;;5050361;28;20542;-72
2024/01/06 08:34:40;;;;;;;36.00;24.07;;;0.60;86.40;;;;;;5061558;28;20056;-73
2024/01/06 08:37:06;;;;;;;37.40;26.73;;;0.60;86.50;;;;;;5045060;28;20095;-72
2024/01/06 08:39:32;;;;;;;38.57;25.47;;;0.60;86.40;;;;;;5056447;28;20041;-73
2024/01/06 08:41:58;;;;;;;33.00;23.57;;;0.60;86.40;;;;;;5027249;28;20041;-74
2024/01/06 08:44:24;;;;;;;37.20;26.37;;;0.60;86.40;;;;;;5043984;28;20044;-73
2024/01/06 08:46:50;;;;;;;36.80;24.67;;;0.70;86.40;;;;;;5060590;28;20415;-73
2024/01/06 08:49:16;;;;;;;36.63;24.03;;;0.70;86.30;;;;;;5044649;28;20049;-73
2024/01/06 08:51:41;;;;;;;38.30;24.40;;;0.70;86.30;;;;;;5052181;28;20423;-72
2024/01/06 08:54:07;;;;;;;34.00;23.67;;;0.70;86.30;;;;;;5047677;28;20053;-72
2024/01/06 08:56:34;;;;;;;39.43;25.70;;;0.70;86.30;;;;;;5039991;28;20558;-74
2024/01/06 08:58:59;;;;;;;39.30;25.57;;;0.70;86.30;;;;;;5038449;28;20044;-73
2024/01/06 09:01:25;;;;;;;35.33;24.13;;;0.70;86.20;;;;;;5021130;28;20455;-74
2024/01/06 09:03:51;;;;;;;37.80;23.63;;;0.70;86.20;;;;;;5039436;28;20510;-72
2024/01/06 09:06:16;;;;;;;37.20;24.37;;;0.80;86.30;;;;;;5048096;28;20051;-73
2024/01/06 09:08:42;;;;;;;33.30;23.00;;;0.80;86.10;;;;;;5039546;28;20053;-72
2024/01/06 09:11:08;;;;;;;33.70;23.67;;;0.80;86.10;;;;;;5041043;28;20048;-72
2024/01/06 09:13:34;;;;;;;34.10;23.33;;;0.80;86.10;;;;;;5046458;28;20539;-73
2024/01/06 09:16:00;;;;;;;35.87;22.63;;;0.80;86.20;;;;;;5028349;28;20045;-73
2024/01/06 09:18:26;;;;;;;39.63;24.13;;;0.80;86.10;;;;;;5052147;28;20414;-73
2024/01/06 09:20:53;;;;;;;33.07;22.97;;;0.80;86.10;;;;;;5045719;28;20041;-72
2024/01/06 09:23:20;;;;;;;31.80;22.77;;;0.80;86.10;;;;;;5047074;28;20524;-72
2024/01/06 09:25:49;;;;;;;33.50;23.13;;;0.80;86.10;;;;;;5023700;28;20521;-72
2024/01/06 09:28:15;;;;;;;34.80;22.37;;;0.80;86.00;;;;;;4997935;28;20120;-72
2024/01/06 09:30:41;;;;;;;32.70;23.13;;;0.80;86.10;;;;;;5045611;28;20581;-73
2024/01/06 09:33:09;;;;;;;32.73;22.23;;;0.80;86.10;;;;;;5032352;28;20048;-72
2024/01/06 09:35:35;;;;;;;33.57;22.90;;;0.80;86.00;;;;;;5058709;28;20395;-72
2024/01/06 09:38:01;;;;;;;34.37;24.10;;;0.80;86.00;;;;;;5043359;28;20072;-72
2024/01/06 09:40:31;;;;;;;34.77;20.53;;;0.80;86.00;;;;;;5053420;28;20458;-74
2024/01/06 09:42:56;;;;;;;31.53;21.80;;;0.80;85.90;;;;;;5033127;28;20454;-73
2024/01/06 09:45:22;;;;;;;31.90;22.23;;;0.80;85.90;;;;;;5044974;28;20056;-72
2024/01/06 09:47:50;;;;;;;29.67;20.77;;;0.80;85.90;;;;;;5032388;28;20049;-72
2024/01/06 09:50:21;;;;;;;32.20;21.40;;;0.90;85.80;;;;;;5038399;28;20404;-73
2024/01/06 09:52:56;;;;;;;30.70;20.73;;;0.90;85.70;;;;;;5031165;28;20555;-73
2024/01/06 09:55:28;;;;;;;29.83;20.20;;;0.90;85.70;;;;;;5037407;28;20045;-73
2024/01/06 09:57:54;;;;;;;30.30;19.90;;;0.90;85.70;;;;;;5031030;28;20041;-73
2024/01/06 10:00:21;;;;;;;32.23;21.53;;;0.80;85.60;;;;;;5038148;28;20056;-72
2024/01/06 10:02:51;;;;;;;36.67;21.00;;;0.90;85.60;;;;;;5037530;28;20041;-72
2024/01/06 10:05:17;;;;;;;29.37;20.33;;;0.90;85.60;;;;;;5050631;28;20535;-72
2024/01/06 10:07:47;;;;;;;28.17;19.67;;;1.00;85.50;;;;;;5056167;28;20056;-73
2024/01/06 10:10:14;;;;;;;30.03;19.90;;;1.00;85.60;;;;;;5020876;28;20155;-72
2024/01/06 10:12:41;;;;;;;27.63;19.70;;;1.00;85.60;;;;;;5031188;28;20441;-72
2024/01/06 10:15:08;;;;;;;26.77;20.03;;;1.00;85.50;;;;;;5042083;28;20517;-73
2024/01/06 10:17:38;;;;;;;27.20;18.47;;;1.00;85.50;;;;;;5030063;28;20282;-71
2024/01/06 10:20:07;;;;;;;28.13;17.97;;;1.00;85.50;;;;;;5029491;28;20055;-74
2024/01/06 10:22:36;;;;;;;28.77;17.03;;;1.00;85.60;;;;;;5048883;28;20048;-72
2024/01/06 10:25:03;;;;;;;26.03;17.07;;;1.00;85.50;;;;;;5028275;28;20037;-72
2024/01/06 10:27:29;;;;;;;22.27;16.00;;;1.10;85.50;;;;;;5063223;28;20471;-73
2024/01/06 10:29:55;;;;;;;25.00;16.00;;;1.10;85.50;;;;;;5041376;28;20086;-72
2024/01/06 10:32:21;;;;;;;26.27;16.47;;;1.10;85.40;;;;;;5045797;28;20049;-72
2024/01/06 10:34:46;;;;;;;23.07;15.83;;;1.10;85.30;;;;;;5037322;28;20515;-72
2024/01/06 10:37:12;;;;;;;22.43;15.90;;;1.10;85.30;;;;;;5046444;28;20128;-71
2024/01/06 10:39:38;;;;;;;22.10;16.47;;;1.10;85.10;;;;;;5053358;28;20490;-73
2024/01/06 10:42:06;;;;;;;21.00;15.33;;;1.20;85.10;;;;;;5048726;28;20452;-73
2024/01/06 10:44:33;;;;;;;22.50;15.80;;;1.20;85.10;;;;;;5060798;28;20060;-72
2024/01/06 10:47:00;;;;;;;24.30;16.53;;;1.30;85.10;;;;;;5027523;28;20056;-75
2024/01/06 10:49:28;;;;;;;23.73;16.60;;;1.40;85.20;;;;;;5038512;28;20084;-74
2024/01/06 10:51:54;;;;;;;22.50;16.27;;;1.40;85.10;;;;;;5021973;28;20041;-73
2024/01/06 10:54:21;;;;;;;19.27;15.07;;;1.50;85.10;;;;;;5044178;28;20085;-72
2024/01/06 10:56:48;;;;;;;19.73;13.77;;;1.50;85.10;;;;;;5050801;28;20045;-72
2024/01/06 10:59:15;;;;;;;16.93;12.73;;;1.50;84.80;;;;;;5031298;28;20056;-73
2024/01/06 11:01:41;;;;;;;18.30;12.80;;;1.50;84.60;;;;;;5037726;28;20072;-72
2024/01/06 11:04:07;;;;;;;22.00;13.37;;;1.50;84.40;;;;;;5055015;28;20052;-73
2024/01/06 11:06:33;;;;;;;17.20;11.60;;;1.50;84.20;;;;;;5056420;28;20075;-73
2024/01/06 11:09:04;;;;;;;16.10;12.87;;;1.50;84.00;;;;;;5059432;28;20094;-73
2024/01/06 11:11:30;;;;;;;16.90;11.97;;;1.50;84.00;;;;;;5033197;28;20416;-72
2024/01/06 11:14:20;;;;;;;17.30;12.47;;;1.50;83.90;;;;;;5027749;28;20787;-72
2024/01/06 11:16:45;;;;;;;16.90;11.73;;;1.40;84.00;;;;;;5028469;28;20064;-72
2024/01/06 11:19:33;;;;;;;15.93;11.67;;;1.40;83.70;;;;;;5034108;28;20057;-73
2024/01/06 11:22:39;;;;;;;16.57;11.83;;;1.40;83.80;;;;;;5044789;28;20366;-72
2024/01/06 11:25:13;;;;;;;17.47;13.33;;;1.40;83.60;;;;;;5053940;28;20049;-72
2024/01/06 11:27:41;;;;;;;16.40;12.47;;;1.40;83.30;;;;;;5022118;28;20538;-71
2024/01/06 11:30:08;;;;;;;16.90;13.00;;;1.40;83.60;;;;;;5035245;28;20057;-72
2024/01/06 11:32:36;;;;;;;18.20;12.90;;;1.40;83.50;;;;;;5038114;28;20064;-74
2024/01/06 11:35:10;;;;;;;18.60;13.20;;;1.40;83.40;;;;;;5034163;28;20126;-71
2024/01/06 11:37:40;;;;;;;16.63;12.37;;;1.40;83.50;;;;;;5031365;28;20488;-71
2024/01/06 11:40:13;;;;;;;18.67;12.20;;;1.30;83.60;;;;;;5034983;28;20049;-74
2024/01/06 11:42:41;;;;;;;18.70;12.43;;;1.20;83.50;;;;;;5031858;28;20658;-73
2024/01/06 11:45:08;;;;;;;17.90;13.83;;;1.20;83.30;;;;;;5054446;28;20048;-72
2024/01/06 11:47:35;;;;;;;17.40;13.37;;;1.20;83.20;;;;;;5058857;28;20048;-72
2024/01/06 11:50:04;;;;;;;16.83;13.13;;;1.10;83.20;;;;;;5038080;28;20411;-72
2024/01/06 11:52:31;;;;;;;15.80;12.00;;;1.10;83.40;;;;;;5053703;28;20140;-72
2024/01/06 11:54:57;;;;;;;17.23;12.17;;;1.10;83.40;;;;;;5029668;28;20056;-73
2024/01/06 11:57:23;;;;;;;14.37;11.70;;;1.00;83.20;;;;;;5020016;28;20041;-72
2024/01/06 11:59:49;;;;;;;16.87;12.47;;;1.00;83.10;;;;;;5029546;28;20072;-73
2024/01/06 12:02:18;;;;;;;19.07;13.57;;;1.00;82.90;;;;;;5031751;28;20412;-73
2024/01/06 12:04:51;;;;;;;16.53;12.80;;;1.00;83.10;;;;;;5036642;28;20107;-72
2024/01/06 12:07:18;;;;;;;18.23;13.37;;;1.00;83.10;;;;;;5036940;28;20151;-71
2024/01/06 12:09:43;;;;;;;18.37;13.50;;;1.00;83.20;;;;;;5035430;28;20127;-72
2024/01/06 12:12:10;;;;;;;18.23;14.33;;;1.00;83.10;;;;;;5036037;28;20040;-72
2024/01/06 12:14:36;;;;;;;20.07;14.37;;;1.00;83.10;;;;;;5039519;28;20076;-74
2024/01/06 12:17:04;;;;;;;18.13;13.77;;;1.00;83.30;;;;;;5038726;28;20053;-72
2024/01/06 12:19:33;;;;;;;20.10;15.20;;;1.00;83.30;;;;;;5031322;28;20099;-73
2024/01/06 12:21:59;;;;;;;17.70;13.70;;;1.00;83.40;;;;;;5033011;28;20052;-72
2024/01/06 12:24:28;;;;;;;13.80;11.10;;;1.00;83.20;;;;;;5039700;28;20053;-71
2024/01/06 12:26:57;;;;;;;14.60;10.83;;;1.10;83.30;;;;;;5018697;28;20058;-72
2024/01/06 12:29:23;;;;;;;16.20;10.60;;;1.00;83.00;;;;;;5049424;28;20124;-71
2024/01/06 12:31:48;;;;;;;14.17;10.27;;;1.00;82.80;;;;;;5057837;28;20089;-72